Pretty Prairie, KS (67570)

11:47 AM CST on December 19, 2014 (GMT -0600)
hamill shop | Change Station
CLOSE
Current Station
Personal Weather Station
Location: Mount Hope, KS
Elevation: 1470 ft
Nearby Weather Stations

Elev 1470 ft 37.85 °N, 97.68 °W | Updated 54 seconds ago

Overcast
Overcast
32.8 °F
Feels Like 29 °F
N
4.0
Wind Variable Wind from SW
Gusts 4.0 mph

Today
High -- | Low -- °F
--% Chance of Precip.
Yesterday
High -- | Low -- °F
Precip. -- in
7:42 AM 5:15 PM
Waning Crescent, 7% visible
Pressure 30.25 in
Visibility 4.0 miles
Clouds Overcast 500 ft
Windchill 29 °F
Dew Point 32 °F
Humidity 96%
Rainfall 0.00 in
Snow Depth Not available.
UV 1 out of 12
Pollen .10 out of 12
Air Quality Not available.
Flu Activity Not available.
SPECI KHUT 191714Z 17007KT 4SM BR OVC005 01/M01 A3025 RMK AO2 T00111006

More Conditions Fewer Conditions

Pressure 30.25 in
Visibility 4.0 miles
Clouds Overcast 500 ft
Windchill 29 °F
Dew Point 32 °F
Humidity 96%
Rainfall 0.00 in
Snow Depth Not available.
UV 1 out of 12
Pollen .10 out of 12
Air Quality Not available.
Flu Activity Not available.
SPECI KHUT 191714Z 17007KT 4SM BR OVC005 01/M01 A3025 RMK AO2 T00111006

More Conditions Fewer Conditions

10-Day Weather Forecast

Almanac

Astronomy

Dec. 19, 2014 Rise Set
Actual Time
Civil Twilight
Nautical Twilight
Astronomical Twilight
Moon
Length of Visible Light
Length of Day
Tomorrow will be .
, % of the Moon is Illuminated

Today's Extremes

State Highs State Lows

Community

WunderPhotos

Upload Photos

1,779,009 photos uploaded!

WunderBlogs® & News

Nearby

Air Quality

  Air Quality AQ Index Pollutant
Not available.

Snow Depth

Station Depth Elevation

Earthquake Activity

City Distance Mag. Time & Date
Minimum magnitude displayed is 2.5.

Coastal Water Temperatures

Place Temperature

Nearby Weather Stations